PAFR METAR and TAF weather

Enter ICAO airport designator
Station Type Date Time Source
PAFR METAR 2020/01/20 09:59 UTC NOAA

PAFR 200959Z AUTO 00000KT 10SM FEW040 BKN049 OVC060 M14/M16 A2932 RMK AO2 SLP944 FZRANO $


Station Type Date Time Source
PAFR Decoded METAR 2020/01/20 09:59 UTC NOAA

Ft. Richardson / Bryant U. S. Army Heliport, Ak, AK, United States (PAFR) 61-16N 149-39W 115M
Jan 20, 2020 - 04:59 AM EST / 2020.01.20 0959 UTC
Wind: Calm:0
Visibility: 10 mile(s):0
Sky conditions: overcast
Temperature: 6 F (-14 C)
Dew Point: 3 F (-16 C)
Relative Humidity: 84%
Pressure (altimeter): 29.32 in. Hg (992 hPa)
ob: PAFR 200959Z AUTO 00000KT 10SM FEW040 BKN049 OVC060 M14/M16 A2932 RMK AO2 SLP944 FZRANO
cycle: 10

Station Type Date Time Source
PAFR TAF UTC NOAA

Error!

Example: see airport list